Language selection

Weather shortcuts

Laurentian Fan: Past 24 Hour Conditions

 

West Chedabucto Bay - 44489

09:00 PM AST 01 March 2024Buoy position: 45.49N 61.14W
Disclaimer

This table is a summary of hourly weather conditions for the past 24 hours.
Please note that these observations might not always be representative of weather conditions over their associated marine area.

Date / Time
(AST)
Wind(knots) Wave height(m) Wave period(s) Pressure(kPa) Air tempC) Water tempC)
01 March 2024
21:00 WNW 17 gusts 21 0.55 3.0 103.0 -7 1
20:00 WNW 17 gusts 21 0.56 3.0 102.9 -7 1
19:00 NW 18 gusts 23 0.64 3.3 102.8 -7 1
18:00 NW 20 gusts 26 0.60 3.1 102.7 -6 1
17:00 WNW 23 gusts 28 0.71 3.2 102.6 -6 1
16:00 WNW 18 gusts 24 0.67 3.1 102.6 -7 1
15:00 WNW 18 gusts 25 0.67 3.1 102.5 -7 1
14:00 NW 18 gusts 24 0.68 3.1 102.5 -8 1
13:00 NW 19 gusts 26 0.66 3.1 102.5 -9 1
12:00 NW 20 gusts 25 N/A N/A 102.5 -10 N/A
11:00 NNW 24 gusts 30 0.82 3.1 102.5 -10 N/A
10:00 NW 22 gusts 28 0.78 3.3 102.5 -10 N/A
9:00 NW 22 gusts 28 0.77 3.3 102.4 -11 N/A
8:00 NW 23 gusts 30 0.80 3.4 102.3 -11 N/A
7:00 NW 21 gusts 28 0.74 3.3 102.2 -11 N/A
6:00 NW 24 gusts 31 0.84 3.3 102.0 -10 N/A
5:00 NW 23 gusts 29 0.70 3.3 101.9 -10 N/A
4:00 NW 21 gusts 26 0.65 3.2 101.8 -10 N/A
3:00 NW 18 gusts 25 0.58 3.1 101.7 -9 1
2:00 NW 24 gusts 29 0.68 2.9 101.6 -8 1
1:00 NW 22 gusts 29 0.65 3.1 101.6 -7 1
0:00 NW 20 gusts 25 0.67 3.2 101.5 -7 1
29 February 2024
23:00 NNW 25 gusts 31 0.79 3.3 101.4 -6 1
22:00 NW 22 gusts 29 0.75 3.2 101.4 -6 1
21:00 NW 22 gusts 28 0.69 3.6 101.3 -5 1

Zoom-in to make a selection

Map of Atlantic - Newfoundland marine weather areas Banquereau - 44139 East Chedabucto Bay – 44488 West Chedabucto Bay – 44489 Blanc-Sablon Airport Cap Whittle Chevery Natashquan Airport Heath Point Îles de la Madeleine Airport Miscou Island Eskasoni (First Nations) Grand Étang Ingonish Beach North Mountain St.Paul Island J.A. Douglas McCurdy Sydney Airport Charlottetown Airport East Point North Cape Argentia Berry Hill Bonavista Burgeo Cape Race Corner Brook Daniel's Harbour Englee Ferolle Point La Scie Port aux Basques Sagona Island St. Anthony Airport St. John's Int'l Airport St. Lawrence Stephenville Airport Twillingate Winterland Branch Hill Wreckhouse Grates Cove Pool's Island Marticot Island Long Pond Cartwright Airport Mary's Harbour
Legend:
buoy Buoy
land station Land Station

Atlantic - Newfoundland Area

Another Region

Date modified: